ADDS METAR Data INFO
IDs: Format: Raw Decoded Include TAF

Data at: 1531 UTC 01 May 2016

Region: TOP
KATL 011521Z VRB03KT 10SM BKN022 BKN060 25/19 A3005 RMK AO2 T02500189

KBOS 011354Z 17008KT 10SM SCT095 OVC140 11/01 A3025 RMK AO2 SLP244 T01060006

KBWI 011454Z 12007KT 7SM -RA OVC005 11/10 A3011 RMK AO2 SLP195 P0001 60017 T01110100 58006

KCLE 011451Z 28005KT 5SM BR OVC004 15/14 A2996 RMK AO2 SLP143 60001 T01500139 51010 $

KCLT 011452Z 17010KT 10SM -RA BKN007 BKN040 BKN085 20/18 A3007 RMK AO2 RAB23 SLP176 P0001 60018 T02000183 53002

KCVG 011452Z 19007KT 10SM SCT017 BKN150 BKN200 22/17 A2994 RMK AO2 SLP130 T02170172 51006

KDCA 011526Z 15007KT 8SM -RA BKN008 OVC013 12/11 A3010 RMK AO2 P0010 T01220111

KDEN 011513Z 36008KT 3/4SM R35L/P6000FT -SN BR BKN005 OVC010 01/M01 A3032 RMK AO2 SFC VIS 1 3/4 P0001 T00061011

KDFW 011453Z COR 02016G20KT 10SM FEW250 18/08 A3002 RMK AO2 SLP160 T01780078 51026

KDTW 011512Z 01005KT 3SM -DZ BR OVC004 10/09 A2998 RMK AO2 P0000

KEWR 011451Z 13006KT 8SM -RA BKN014 BKN024 OVC040 08/07 A3021 RMK AO2 SLP228 P0007 60010 T00830067 58003 $

KFLL 011453Z 12016G22KT 10SM SCT033 BKN250 28/19 A3003 RMK AO2 SLP167 T02780189 53008

KIAD 011452Z 16008KT 3SM -RA BR OVC009 12/11 A3008 RMK AO2 SLP187 P0006 60015 T01170111 58008

KIAH 011453Z 04008KT 10SM SCT039 SCT048 BKN070 BKN250 24/20 A2985 RMK AO2 SLP107 T02440200 51018

KJFK 011451Z 12009KT 6SM -RA BR SCT011 SCT020 OVC047 09/07 A3022 RMK AO2 SLP234 P0004 60006 T00940072 58003 $

KLAS 011456Z 00000KT 10SM FEW090 FEW140 SCT250 17/07 A2987 RMK AO2 SLP103 T01670067 53019 $

KLAX 011453Z 10005KT 9SM FEW019 16/11 A2991 RMK AO2 SLP128 T01560111 53018 $

KLGA 011451Z 13009KT 8SM -RA SCT014 BKN026 OVC049 10/07 A3020 RMK AO2 SLP227 P0003 60007 T01000067 58004 $

KMCO 011453Z 17009KT 10SM SCT033 SCT140 BKN250 27/19 A3007 RMK AO2 SLP180 T02720189 52009 $

KMDW 011453Z 02011KT 1 1/4SM BR OVC003 07/06 A3000 RMK AO2 SLP163 T00720061 51016

KMEM 011454Z 16005KT 10SM FEW020 24/20 A2993 RMK AO2 SLP133 T02440200 51013

KMIA 011453Z 11015G20KT 10SM BKN034 BKN044 BKN250 28/19 A3003 RMK AO2 SLP170 T02780194 53010

KMSP 011453Z 04012KT 10SM SCT170 BKN250 09/02 A3017 RMK AO2 SLP219 T00940017 50005

KORD 011451Z 03010KT 1/4SM R10L/P6000FT BR OVC003 07/07 A3000 RMK AO2 SFC VIS 1 SLP164 T00670067 51014

KPDX 011453Z 30004KT 10SM CLR 12/06 A3016 RMK AO2 SLP210 T01170061 57007

KPHL 011522Z 10007KT 6SM -RA BR BKN006 BKN012 OVC025 09/07 A3017 RMK AO2 P0002 T00940072

KPHX 011451Z 09009KT 10SM BKN090 BKN110 BKN140 17/08 A2984 RMK AO2 SLP094 T01720083 53027

KPIT 011451Z 24008KT 10SM BKN010 OVC016 17/15 A2995 RMK AO2 RAE49 SLP147 P0000 60006 T01720150 51008 $

KSAN 011451Z 15006KT 10SM FEW018 BKN027 16/11 A2993 RMK AO2 SLP134 T01610111 53017 $

KSEA 011453Z 02006KT 10SM FEW180 12/08 A3021 RMK AO2 SLP237 T01220078 56007

KSFO 011456Z 00000KT 10SM CLR 16/11 A2984 RMK AO2 SLP103 T01610111 53011

KSLC 011454Z 10015G29KT 10SM FEW065 FEW110 BKN140 BKN200 11/M06 A3008 RMK AO2 PK WND 06029/1450 SLP162 SCSL DSNT N-E ACSL DSNT NE AND W T01061056 53015

KSTL 011451Z 00000KT 10SM OVC007 17/14 A2993 RMK AO2 SLP130 T01720144 51018 $

KTPA 011453Z 15008KT 10SM SCT026 BKN280 27/20 A3005 RMK AO2 SLP176 T02720200 51010